Terminal Aerodrome Forecast
Issued by NWS

Home | Current Version | Previous Version | Text Only | Print | Product List | Glossary On
Versions: 1 2 3 4 5 6 7 8 9 10 11 12 13 14 15 16 17 18 19 20 21 22 23 24 25 26 27 28 29 30 31 32 33 34 35 36
000
FTUS41 KBOX 231139 AAB
TAFFMH
TAF AMD
KFMH 231139Z 2312/2412 02013G25KT 1/4SM -DZ FG VCSH OVC002
     FM231400 02013G25KT 1SM -DZ BR OVC003
     FM231700 02011G22KT 3SM BR OVC007
     FM231900 02011G20KT P6SM BKN010
     FM240000 02008KT 1 1/2SM BR SCT012
     FM240800 01006KT 3SM BR BKN012
     FM241100 01006KT 4SM BR SCT012=

USA.gov is the U.S. government's official web portal to all federal, state and local government web resources and services.